^^
Datos históricos de la estación: Murcia-Puente Tocinos
Diario Informe para Diciembre 03, 2021 Unidades:  Ambas    Ingés   Métrico
Diario Semanal Mensual Anual
  Máxima: Mínima: Promedio:
Temperatura: 62.8 °F /  17.1 °C 47.8 °F /  8.8 °C 55.2 °F /  12.9 °C
Punto de rocio: 38.1 °F /  3.4 °C 25.9 °F /  -3.4 °C 32.9 °F /  0.5 °C
Humedad: 56% 35% 43%
Velocidad viento: 15.9mph /  25.6km/h - 7.6mph /  12.3km/h
Racha viento: 31.1mph /  50.1km/h - -
Viento- - OSO
Presión: 30.2 in /  1022.8 hPa 30 in /  1017.0 hPa -
Precipitación: 0 in /  0.0 mm    
 
 
Tabla de datos para Diciembre 03, 2021
Hora Temperatura Punto de rocio Presión Viento Velocidad viento Racha viento Humedad Intensidad lluvia(por hora) Nubes
00:04 52.2 °F /  11.2 °C 30.4 °F /  -0.9 °C 30in /  1017.2hPa ONO 10mph /  16.1km/h 19.7mph /  31.7km/h 43% 0in /  0.0mm
00:09 52 °F /  11.1 °C 30.2 °F /  -1 °C 30in /  1017.2hPa ONO 10.1mph /  16.3km/h 17.3mph /  27.8km/h 43% 0in /  0.0mm
00:14 51.8 °F /  11 °C 30 °F /  -1.1 °C 30in /  1017.3hPa ONO 10.7mph /  17.2km/h 21.9mph /  35.2km/h 43% 0in /  0.0mm
00:19 51.6 °F /  10.9 °C 29.5 °F /  -1.4 °C 30in /  1017.3hPa ONO 10.9mph /  17.6km/h 23mph /  37km/h 42.4% 0in /  0.0mm
00:24 51.6 °F /  10.9 °C 29.3 °F /  -1.5 °C 30in /  1017.3hPa ONO 12.3mph /  19.8km/h 18.5mph /  29.8km/h 42% 0in /  0.0mm
00:29 51.6 °F /  10.9 °C 29.3 °F /  -1.5 °C 30.1in /  1017.6hPa ONO 11.9mph /  19.2km/h 19.7mph /  31.7km/h 42% 0in /  0.0mm
00:34 51.4 °F /  10.8 °C 29.1 °F /  -1.6 °C 30.1in /  1017.6hPa ONO 10.2mph /  16.4km/h 16.8mph /  27km/h 42% 0in /  0.0mm
00:39 51.3 °F /  10.7 °C 28.9 °F /  -1.7 °C 30.1in /  1017.6hPa ONO 10.2mph /  16.4km/h 21.9mph /  35.2km/h 41.9% 0in /  0.0mm
00:44 51.3 °F /  10.7 °C 28.4 °F /  -2 °C 30.1in /  1017.6hPa ONO 10.2mph /  16.4km/h 27.9mph /  44.9km/h 41% 0in /  0.0mm
00:49 51.3 °F /  10.7 °C 28.2 °F /  -2.1 °C 30.1in /  1017.5hPa ONO 11mph /  17.7km/h 26.8mph /  43.1km/h 41% 0in /  0.0mm
00:54 51.3 °F /  10.7 °C 28.2 °F /  -2.1 °C 30.1in /  1017.5hPa ONO 15.2mph /  24.5km/h 21.9mph /  35.2km/h 41% 0in /  0.0mm
00:59 51.1 °F /  10.6 °C 28.2 °F /  -2.1 °C 30.1in /  1017.5hPa ONO 14.8mph /  23.9km/h 23.5mph /  37.8km/h 40.9% 0in /  0.0mm
01:04 51.3 °F /  10.7 °C 27.7 °F /  -2.4 °C 30in /  1017.4hPa ONO 13.7mph /  22km/h 24.2mph /  38.9km/h 40% 0in /  0.0mm
01:09 51.3 °F /  10.7 °C 27.7 °F /  -2.4 °C 30in /  1017.4hPa ONO 13.7mph /  22.1km/h 24.2mph /  38.9km/h 39.8% 0in /  0.0mm
01:14 51.3 °F /  10.7 °C 27.5 °F /  -2.5 °C 30.1in /  1017.5hPa ONO 14mph /  22.5km/h 20.7mph /  33.3km/h 39.6% 0in /  0.0mm
01:19 51.1 °F /  10.6 °C 27.3 °F /  -2.6 °C 30.1in /  1017.5hPa ONO 13.3mph /  21.4km/h 17.3mph /  27.8km/h 39.5% 0in /  0.0mm
01:24 51.3 °F /  10.7 °C 27 °F /  -2.8 °C 30.1in /  1017.5hPa ONO 10mph /  16.1km/h 20.7mph /  33.3km/h 39% 0in /  0.0mm
01:29 51.3 °F /  10.7 °C 27.1 °F /  -2.7 °C 30.1in /  1017.5hPa ONO 10.2mph /  16.4km/h 18.4mph /  29.6km/h 39% 0in /  0.0mm
01:34 51.1 °F /  10.6 °C 27 °F /  -2.8 °C 30.1in /  1017.5hPa ONO 11.2mph /  18km/h 16.1mph /  25.9km/h 39% 0in /  0.0mm
01:39 50.7 °F /  10.4 °C 26.8 °F /  -2.9 °C 30.1in /  1017.5hPa ONO 10.9mph /  17.6km/h 15.2mph /  24.5km/h 39.5% 0in /  0.0mm
01:44 50.5 °F /  10.3 °C 26.8 °F /  -2.9 °C 30.1in /  1017.5hPa Oeste 9.7mph /  15.6km/h 15.6mph /  25.1km/h 39.4% 0in /  0.0mm
01:49 50.5 °F /  10.3 °C 26.6 °F /  -3 °C 30in /  1017.4hPa Oeste 9.4mph /  15.2km/h 17.3mph /  27.8km/h 39.1% 0in /  0.0mm
01:54 50.5 °F /  10.3 °C 26.2 °F /  -3.2 °C 30in /  1017.4hPa Oeste 8.1mph /  13km/h 11.5mph /  18.5km/h 38.4% 0in /  0.0mm
01:59 50.7 °F /  10.4 °C 26.1 °F /  -3.3 °C 30in /  1017.4hPa Oeste 7.8mph /  12.6km/h 15mph /  24.1km/h 38% 0in /  0.0mm
02:04 50.7 °F /  10.4 °C 25.9 °F /  -3.4 °C 30in /  1017.4hPa OSO 6.9mph /  11.1km/h 9.2mph /  14.8km/h 37.8% 0in /  0.0mm
02:09 50.7 °F /  10.4 °C 25.9 °F /  -3.4 °C 30in /  1017.4hPa SO 6.4mph /  10.3km/h 8.1mph /  13km/h 37.9% 0in /  0.0mm
02:14 50.7 °F /  10.4 °C 26.1 °F /  -3.3 °C 30.1in /  1017.6hPa SO 4.3mph /  6.9km/h 8.7mph /  14km/h 38% 0in /  0.0mm
02:19 50.7 °F /  10.4 °C 26.1 °F /  -3.3 °C 30.1in /  1017.6hPa OSO 4.3mph /  7km/h 13mph /  20.9km/h 38% 0in /  0.0mm
02:24 50.9 °F /  10.5 °C 26.2 °F /  -3.2 °C 30.1in /  1017.6hPa OSO 4.7mph /  7.6km/h 12.7mph /  20.4km/h 38% 0in /  0.0mm
02:29 51.3 °F /  10.7 °C 26.2 °F /  -3.2 °C 30.1in /  1017.6hPa OSO 4.7mph /  7.6km/h 8.1mph /  13km/h 37.9% 0in /  0.0mm
02:34 51.3 °F /  10.7 °C 26.4 °F /  -3.1 °C 30in /  1017.3hPa OSO 4.7mph /  7.6km/h 12.7mph /  20.4km/h 38% 0in /  0.0mm
02:39 51.3 °F /  10.7 °C 26.4 °F /  -3.1 °C 30in /  1017.3hPa OSO 4.8mph /  7.7km/h 8.1mph /  13km/h 38.1% 0in /  0.0mm
02:44 50.9 °F /  10.5 °C 26.8 °F /  -2.9 °C 30in /  1017.3hPa OSO 5.2mph /  8.4km/h 11.2mph /  18km/h 39% 0in /  0.0mm
02:49 50.5 °F /  10.3 °C 27 °F /  -2.8 °C 30in /  1017.3hPa SO 5.2mph /  8.4km/h 11.5mph /  18.5km/h 39.7% 0in /  0.0mm
02:54 50.5 °F /  10.3 °C 27 °F /  -2.8 °C 30in /  1017.3hPa SO 5.2mph /  8.4km/h 8.1mph /  13km/h 40% 0in /  0.0mm
02:59 50.2 °F /  10.1 °C 27 °F /  -2.8 °C 30.1in /  1017.5hPa SSO 5.3mph /  8.6km/h 9.7mph /  15.6km/h 40.4% 0in /  0.0mm
03:04 49.6 °F /  9.8 °C 27 °F /  -2.8 °C 30.1in /  1017.5hPa SSO 5.9mph /  9.5km/h 11.5mph /  18.5km/h 41% 0in /  0.0mm
03:09 49.6 °F /  9.8 °C 27.1 °F /  -2.7 °C 30.1in /  1017.5hPa SSO 5.8mph /  9.3km/h 10.4mph /  16.7km/h 41.3% 0in /  0.0mm
03:14 49.6 °F /  9.8 °C 27.5 °F /  -2.5 °C 30.1in /  1017.7hPa SO 5.4mph /  8.7km/h 6.9mph /  11.1km/h 42% 0in /  0.0mm
03:19 49.8 °F /  9.9 °C 27.5 °F /  -2.5 °C 30.1in /  1017.7hPa SO 5.3mph /  8.5km/h 10.4mph /  16.7km/h 42% 0in /  0.0mm
03:24 50 °F /  10 °C 27.9 °F /  -2.3 °C 30.1in /  1017.7hPa SSO 4.7mph /  7.6km/h 8.1mph /  13km/h 42% 0in /  0.0mm
03:29 50.2 °F /  10.1 °C 27.9 °F /  -2.3 °C 30.1in /  1017.7hPa SSO 4.7mph /  7.6km/h 8.5mph /  13.7km/h 42% 0in /  0.0mm
03:34 50 °F /  10 °C 28.2 °F /  -2.1 °C 30.1in /  1017.6hPa SSO 4.7mph /  7.6km/h 9.2mph /  14.8km/h 42.6% 0in /  0.0mm
03:39 49.6 °F /  9.8 °C 28.4 °F /  -2 °C 30.1in /  1017.6hPa SSO 4.9mph /  7.9km/h 9.7mph /  15.6km/h 43.7% 0in /  0.0mm
03:44 49.3 °F /  9.6 °C 28.6 °F /  -1.9 °C 30.1in /  1017.6hPa SSO 5.9mph /  9.5km/h 9.2mph /  14.8km/h 44.6% 0in /  0.0mm
03:49 48.9 °F /  9.4 °C 28.6 °F /  -1.9 °C 30.1in /  1017.5hPa SSO 5.8mph /  9.3km/h 9.2mph /  14.8km/h 45% 0in /  0.0mm
03:54 49.1 °F /  9.5 °C 28.6 °F /  -1.9 °C 30.1in /  1017.5hPa OSO 5.2mph /  8.4km/h 9.7mph /  15.6km/h 45% 0in /  0.0mm
03:59 49.3 °F /  9.6 °C 28.8 °F /  -1.8 °C 30.1in /  1017.7hPa SO 5.1mph /  8.2km/h 6.9mph /  11.1km/h 45% 0in /  0.0mm
04:04 49.3 °F /  9.6 °C 28.8 °F /  -1.8 °C 30.1in /  1017.7hPa ESE 4.7mph /  7.6km/h 4.6mph /  7.4km/h 45% 0in /  0.0mm
04:09 49.1 °F /  9.5 °C 28.8 °F /  -1.8 °C 30.1in /  1017.7hPa SSE 4.2mph /  6.8km/h 3.5mph /  5.6km/h 45.5% 0in /  0.0mm
04:14 48.7 °F /  9.3 °C 28.9 °F /  -1.7 °C 30.1in /  1017.7hPa SE 2mph /  3.2km/h 5.9mph /  9.5km/h 46% 0in /  0.0mm
04:19 48.6 °F /  9.2 °C 28.8 °F /  -1.8 °C 30.1in /  1017.6hPa ESE 2.3mph /  3.7km/h 7.4mph /  11.9km/h 46.3% 0in /  0.0mm
04:24 48.2 °F /  9 °C 28.9 °F /  -1.7 °C 30.1in /  1017.6hPa ESE 3.6mph /  5.8km/h 8.5mph /  13.7km/h 47% 0in /  0.0mm
04:29 47.8 °F /  8.8 °C 28.8 °F /  -1.8 °C 30.1in /  1017.6hPa SE 3.9mph /  6.2km/h 8.1mph /  13km/h 47.2% 0in /  0.0mm
04:34 47.8 °F /  8.8 °C 28.6 °F /  -1.9 °C 30.1in /  1017.6hPa SE 5.2mph /  8.4km/h 7.4mph /  11.9km/h 47.1% 0in /  0.0mm
04:39 47.8 °F /  8.8 °C 28.6 °F /  -1.9 °C 30.1in /  1017.6hPa Sur 5.2mph /  8.4km/h 7.4mph /  11.9km/h 47% 0in /  0.0mm
04:44 47.8 °F /  8.8 °C 28.6 °F /  -1.9 °C 30.1in /  1017.6hPa SSO 5.4mph /  8.7km/h 6.4mph /  10.3km/h 47% 0in /  0.0mm
04:49 47.8 °F /  8.8 °C 28.6 °F /  -1.9 °C 30in /  1017.3hPa SSE 5.3mph /  8.5km/h 8.1mph /  13km/h 47% 0in /  0.0mm
04:54 48 °F /  8.9 °C 28.9 °F /  -1.7 °C 30in /  1017.3hPa SSE 4.7mph /  7.6km/h 8.5mph /  13.7km/h 47.4% 0in /  0.0mm
04:59 48.2 °F /  9 °C 28.8 °F /  -1.8 °C 30in /  1017.3hPa SSE 5mph /  8km/h 10.2mph /  16.4km/h 47% 0in /  0.0mm
05:04 48.6 °F /  9.2 °C 29.3 °F /  -1.5 °C 30in /  1017.3hPa SSE 5.9mph /  9.5km/h 10.4mph /  16.7km/h 47% 0in /  0.0mm
05:09 48.7 °F /  9.3 °C 29.5 °F /  -1.4 °C 30in /  1017.3hPa SE 6mph /  9.7km/h 9.2mph /  14.8km/h 47% 0in /  0.0mm
05:14 48.7 °F /  9.3 °C 29.5 °F /  -1.4 °C 30in /  1017.3hPa SE 6.4mph /  10.3km/h 11.5mph /  18.5km/h 47% 0in /  0.0mm
05:19 48.7 °F /  9.3 °C 29.5 °F /  -1.4 °C 30in /  1017.3hPa SSE 6.4mph /  10.3km/h 10.4mph /  16.7km/h 47% 0in /  0.0mm
05:24 49.1 °F /  9.5 °C 29.5 °F /  -1.4 °C 30in /  1017.3hPa SSE 6.4mph /  10.3km/h 11.5mph /  18.5km/h 46.3% 0in /  0.0mm
05:29 49.5 °F /  9.7 °C 29.5 °F /  -1.4 °C 30in /  1017.3hPa Sur 6.3mph /  10.2km/h 9.2mph /  14.8km/h 46% 0in /  0.0mm
05:34 49.8 °F /  9.9 °C 29.3 °F /  -1.5 °C 30in /  1017.0hPa Sur 6.2mph /  10km/h 9.2mph /  14.8km/h 45.1% 0in /  0.0mm
05:39 50.2 °F /  10.1 °C 29.5 °F /  -1.4 °C 30in /  1017.0hPa SSE 6mph /  9.7km/h 9.7mph /  15.6km/h 44.7% 0in /  0.0mm
05:44 50.4 °F /  10.2 °C 29.1 °F /  -1.6 °C 30in /  1017.2hPa SSE 5.2mph /  8.4km/h 11.2mph /  18km/h 44% 0in /  0.0mm
05:49 50.5 °F /  10.3 °C 29.3 °F /  -1.5 °C 30in /  1017.2hPa SSE 5.5mph /  8.9km/h 11.8mph /  19km/h 44% 0in /  0.0mm
05:54 50.5 °F /  10.3 °C 29.5 °F /  -1.4 °C 30in /  1017.2hPa SSE 7.4mph /  11.9km/h 17.3mph /  27.8km/h 43.8% 0in /  0.0mm
05:59 51.1 °F /  10.6 °C 29.3 °F /  -1.5 °C 30in /  1017.2hPa SSE 7.7mph /  12.4km/h 17.8mph /  28.6km/h 43% 0in /  0.0mm
06:04 51.4 °F /  10.8 °C 29.3 °F /  -1.5 °C 30in /  1017.2hPa Sur 8.7mph /  14km/h 18.4mph /  29.6km/h 42.1% 0in /  0.0mm
06:09 51.6 °F /  10.9 °C 29.3 °F /  -1.5 °C 30in /  1017.2hPa Sur 8.9mph /  14.4km/h 16.1mph /  25.9km/h 42% 0in /  0.0mm
06:14 51.6 °F /  10.9 °C 29.3 °F /  -1.5 °C 30in /  1017.4hPa Sur 10mph /  16.1km/h 13.8mph /  22.2km/h 42% 0in /  0.0mm
06:19 51.6 °F /  10.9 °C 29.3 °F /  -1.5 °C 30in /  1017.4hPa SSO 9.4mph /  15.2km/h 10.4mph /  16.7km/h 42% 0in /  0.0mm
06:24 51.4 °F /  10.8 °C 29.1 °F /  -1.6 °C 30in /  1017.4hPa SO 6.9mph /  11.1km/h 15.6mph /  25.1km/h 42% 0in /  0.0mm
06:29 51.4 °F /  10.8 °C 29.1 °F /  -1.6 °C 30.1in /  1017.5hPa OSO 7mph /  11.3km/h 16.1mph /  25.9km/h 42% 0in /  0.0mm
06:34 51.6 °F /  10.9 °C 29.3 °F /  -1.5 °C 30.1in /  1017.5hPa SSO 7.4mph /  11.9km/h 11.5mph /  18.5km/h 42% 0in /  0.0mm
06:39 51.4 °F /  10.8 °C 29.5 °F /  -1.4 °C 30.1in /  1017.5hPa SO 6.8mph /  11km/h 8.1mph /  13km/h 42.6% 0in /  0.0mm
06:44 51.4 °F /  10.8 °C 29.7 °F /  -1.3 °C 30.1in /  1017.5hPa SO 4.3mph /  6.9km/h 12.7mph /  20.4km/h 43% 0in /  0.0mm
06:49 51.3 °F /  10.7 °C 29.5 °F /  -1.4 °C 30.1in /  1017.5hPa OSO 4.3mph /  7km/h 8.1mph /  13km/h 43% 0in /  0.0mm
06:54 51.3 °F /  10.7 °C 29.5 °F /  -1.4 °C 30.1in /  1017.5hPa SO 4.7mph /  7.6km/h 9.7mph /  15.6km/h 43% 0in /  0.0mm
06:59 51.3 °F /  10.7 °C 30 °F /  -1.1 °C 30.1in /  1017.5hPa SO 4.7mph /  7.6km/h 9.2mph /  14.8km/h 43.8% 0in /  0.0mm
07:04 51.1 °F /  10.6 °C 30 °F /  -1.1 °C 30in /  1017.4hPa OSO 4.7mph /  7.6km/h 7.4mph /  11.9km/h 44% 0in /  0.0mm
07:09 51.1 °F /  10.6 °C 30 °F /  -1.1 °C 30in /  1017.4hPa ONO 4.8mph /  7.7km/h 15mph /  24.1km/h 44% 0in /  0.0mm
07:14 51.3 °F /  10.7 °C 30 °F /  -1.1 °C 30.1in /  1017.6hPa Oeste 5.2mph /  8.4km/h 12.7mph /  20.4km/h 44% 0in /  0.0mm
07:19 51.3 °F /  10.7 °C 30 °F /  -1.1 °C 30.1in /  1017.6hPa ONO 5.6mph /  9km/h 20.7mph /  33.3km/h 44% 0in /  0.0mm
07:24 51.4 °F /  10.8 °C 30.4 °F /  -0.9 °C 30.1in /  1017.6hPa ONO 7.4mph /  11.9km/h 21.9mph /  35.2km/h 44% 0in /  0.0mm
07:29 51.6 °F /  10.9 °C 30.4 °F /  -0.9 °C 30.1in /  1017.9hPa ONO 7.8mph /  12.6km/h 13.8mph /  22.2km/h 44% 0in /  0.0mm
07:34 51.4 °F /  10.8 °C 30.2 °F /  -1 °C 30.1in /  1017.9hPa ONO 10mph /  16.1km/h 15mph /  24.1km/h 44% 0in /  0.0mm
07:39 51.4 °F /  10.8 °C 30.4 °F /  -0.9 °C 30.1in /  1017.9hPa ONO 9.3mph /  15km/h 11.8mph /  19km/h 44.2% 0in /  0.0mm
07:44 51.4 °F /  10.8 °C 30.6 °F /  -0.8 °C 30.1in /  1018.1hPa ONO 6.4mph /  10.3km/h 15mph /  24.1km/h 44.5% 0in /  0.0mm
07:49 51.4 °F /  10.8 °C 30.4 °F /  -0.9 °C 30.1in /  1018.1hPa ONO 6.7mph /  10.8km/h 12.7mph /  20.4km/h 44.1% 0in /  0.0mm
07:54 51.6 °F /  10.9 °C 30.6 °F /  -0.8 °C 30.1in /  1018.1hPa Oeste 8.1mph /  13km/h 12.3mph /  19.8km/h 44.4% 0in /  0.0mm
07:59 51.6 °F /  10.9 °C 30.7 °F /  -0.7 °C 30.1in /  1018.3hPa ONO 7.7mph /  12.4km/h 12.7mph /  20.4km/h 44.6% 0in /  0.0mm
08:04 51.8 °F /  11 °C 31.1 °F /  -0.5 °C 30.1in /  1018.3hPa ONO 6.2mph /  10km/h 8.1mph /  13km/h 44.7% 0in /  0.0mm
08:09 51.8 °F /  11 °C 31.1 °F /  -0.5 °C 30.1in /  1018.3hPa ONO 5.8mph /  9.4km/h 6.9mph /  11.1km/h 45% 0in /  0.0mm
08:14 51.6 °F /  10.9 °C 30.9 °F /  -0.6 °C 30.1in /  1018.5hPa Oeste 4mph /  6.4km/h 12.3mph /  19.8km/h 45% 0in /  0.0mm
08:19 51.8 °F /  11 °C 31.1 °F /  -0.5 °C 30.1in /  1018.5hPa Oeste 4.2mph /  6.8km/h 14mph /  22.5km/h 45% 0in /  0.0mm
08:24 52 °F /  11.1 °C 31.3 °F /  -0.4 °C 30.1in /  1018.5hPa Oeste 5.4mph /  8.7km/h 11.8mph /  19km/h 45% 0in /  0.0mm
08:29 52 °F /  11.1 °C 31.3 °F /  -0.4 °C 30.1in /  1018.6hPa Oeste 5.5mph /  8.9km/h 10.7mph /  17.2km/h 45% 0in /  0.0mm
08:34 52 °F /  11.1 °C 31.3 °F /  -0.4 °C 30.1in /  1018.6hPa Oeste 6.2mph /  10km/h 10.4mph /  16.7km/h 45% 0in /  0.0mm
08:39 52.2 °F /  11.2 °C 31.3 °F /  -0.4 °C 30.1in /  1018.6hPa OSO 6.2mph /  10km/h 16.1mph /  25.9km/h 45% 0in /  0.0mm
08:44 52.3 °F /  11.3 °C 31.3 °F /  -0.4 °C 30.1in /  1018.9hPa Oeste 6.2mph /  10km/h 10.7mph /  17.2km/h 44.5% 0in /  0.0mm
08:49 52.3 °F /  11.3 °C 31.1 °F /  -0.5 °C 30.1in /  1018.9hPa SSO 5.8mph /  9.4km/h 8.1mph /  13km/h 44% 0in /  0.0mm
08:54 52.7 °F /  11.5 °C 31.5 °F /  -0.3 °C 30.1in /  1018.9hPa SE 4mph /  6.4km/h 4.6mph /  7.4km/h 44% 0in /  0.0mm
08:59 53.1 °F /  11.7 °C 31.3 °F /  -0.4 °C 30.1in /  1019.3hPa SO 4mph /  6.4km/h 10.7mph /  17.2km/h 43.4% 0in /  0.0mm
09:04 53.1 °F /  11.7 °C 31.5 °F /  -0.3 °C 30.1in /  1019.3hPa OSO 4mph /  6.4km/h 9.2mph /  14.8km/h 43.7% 0in /  0.0mm
09:09 53.1 °F /  11.7 °C 31.5 °F /  -0.3 °C 30.1in /  1019.3hPa OSO 4mph /  6.4km/h 11.5mph /  18.5km/h 43.5% 0in /  0.0mm
09:14 53.2 °F /  11.8 °C 31.5 °F /  -0.3 °C 30.1in /  1019.5hPa Oeste 4mph /  6.4km/h 6.9mph /  11.1km/h 43.4% 0in /  0.0mm
09:19 53.2 °F /  11.8 °C 31.6 °F /  -0.2 °C 30.1in /  1019.5hPa ONO 3.9mph /  6.2km/h 5.2mph /  8.4km/h 43.3% 0in /  0.0mm
09:24 53.6 °F /  12 °C 31.8 °F /  -0.1 °C 30.1in /  1019.5hPa Oeste 3.1mph /  5km/h 6.9mph /  11.1km/h 43.4% 0in /  0.0mm
09:29 54.1 °F /  12.3 °C 32 °F /  0 °C 30.1in /  1019.9hPa SE 3.3mph /  5.3km/h 8.1mph /  13km/h 43% 0in /  0.0mm
09:34 54.1 °F /  12.3 °C 31.8 °F /  -0.1 °C 30.1in /  1019.9hPa SO 4mph /  6.4km/h 14mph /  22.5km/h 42.4% 0in /  0.0mm
09:39 54.1 °F /  12.3 °C 32 °F /  0 °C 30.1in /  1019.9hPa SO 4.4mph /  7.1km/h 11.5mph /  18.5km/h 42.7% 0in /  0.0mm
09:44 54.3 °F /  12.4 °C 31.8 °F /  -0.1 °C 30.1in /  1020.1hPa SO 6.2mph /  10km/h 12.7mph /  20.4km/h 42.2% 0in /  0.0mm
09:49 54.5 °F /  12.5 °C 32 °F /  0 °C 30.1in /  1020.1hPa SO 6.2mph /  10km/h 11.8mph /  19km/h 42.1% 0in /  0.0mm
09:54 54.9 °F /  12.7 °C 32.2 °F /  0.1 °C 30.1in /  1020.1hPa Oeste 6.2mph /  10km/h 16.3mph /  26.2km/h 42% 0in /  0.0mm
09:59 54.9 °F /  12.7 °C 32.2 °F /  0.1 °C 30.1in /  1020.5hPa Oeste 6.2mph /  10km/h 12.7mph /  20.4km/h 41.9% 0in /  0.0mm
10:04 55 °F /  12.8 °C 32.4 °F /  0.2 °C 30.1in /  1020.5hPa Oeste 6.2mph /  10km/h 9.2mph /  14.8km/h 42% 0in /  0.0mm
10:09 55.2 °F /  12.9 °C 32.4 °F /  0.2 °C 30.1in /  1020.5hPa Oeste 6.2mph /  9.9km/h 9.2mph /  14.8km/h 41.8% 0in /  0.0mm
10:14 55.4 °F /  13 °C 32.5 °F /  0.3 °C 30.1in /  1020.5hPa Oeste 5.9mph /  9.5km/h 13mph /  20.9km/h 41.9% 0in /  0.0mm
10:19 55.6 °F /  13.1 °C 32.7 °F /  0.4 °C 30.1in /  1020.5hPa Oeste 6.2mph /  9.9km/h 13.8mph /  22.2km/h 41.7% 0in /  0.0mm
10:24 55.8 °F /  13.2 °C 32.4 °F /  0.2 °C 30.1in /  1020.5hPa Oeste 7.4mph /  11.9km/h 22.3mph /  35.9km/h 41% 0in /  0.0mm
10:29 55.8 °F /  13.2 °C 32.2 °F /  0.1 °C 30.1in /  1020.5hPa Oeste 8.1mph /  13km/h 21.9mph /  35.2km/h 40.7% 0in /  0.0mm
10:34 55.9 °F /  13.3 °C 32.2 °F /  0.1 °C 30.1in /  1020.5hPa Oeste 11.4mph /  18.3km/h 25.3mph /  40.7km/h 40.5% 0in /  0.0mm
10:39 55.9 °F /  13.3 °C 32.2 °F /  0.1 °C 30.1in /  1020.5hPa Oeste 11.5mph /  18.5km/h 18.4mph /  29.6km/h 40.2% 0in /  0.0mm
10:44 56.1 °F /  13.4 °C 32.2 °F /  0.1 °C 30.1in /  1020.7hPa ONO 11.8mph /  19km/h 19.6mph /  31.5km/h 40% 0in /  0.0mm
10:49 56.5 °F /  13.6 °C 32.4 °F /  0.2 °C 30.1in /  1020.7hPa Oeste 11.6mph /  18.7km/h 19.6mph /  31.5km/h 40% 0in /  0.0mm
10:54 56.7 °F /  13.7 °C 32.2 °F /  0.1 °C 30.1in /  1020.7hPa Oeste 10.7mph /  17.2km/h 18.5mph /  29.8km/h 39.4% 0in /  0.0mm
10:59 56.7 °F /  13.7 °C 32 °F /  0 °C 30.1in /  1020.7hPa ONO 11.1mph /  17.8km/h 25.3mph /  40.7km/h 39% 0in /  0.0mm
11:04 56.8 °F /  13.8 °C 32.2 °F /  0.1 °C 30.1in /  1020.7hPa Oeste 12.3mph /  19.8km/h 23mph /  37km/h 39% 0in /  0.0mm
11:09 57 °F /  13.9 °C 32.4 °F /  0.2 °C 30.1in /  1020.7hPa Oeste 12.6mph /  20.2km/h 23.5mph /  37.8km/h 39% 0in /  0.0mm
11:14 57.2 °F /  14 °C 32.4 °F /  0.2 °C 30.1in /  1020.7hPa Oeste 13.7mph /  22km/h 24.6mph /  39.6km/h 39% 0in /  0.0mm
11:19 57.4 °F /  14.1 °C 32.4 °F /  0.2 °C 30.1in /  1020.4hPa ONO 13.4mph /  21.5km/h 23mph /  37km/h 38.4% 0in /  0.0mm
11:24 57.6 °F /  14.2 °C 32.2 °F /  0.1 °C 30.1in /  1020.4hPa Oeste 11.8mph /  19km/h 25.6mph /  41.2km/h 38% 0in /  0.0mm
11:29 57.7 °F /  14.3 °C 32.4 °F /  0.2 °C 30.1in /  1020.6hPa ONO 11.7mph /  18.8km/h 17mph /  27.4km/h 38% 0in /  0.0mm
11:34 57.9 °F /  14.4 °C 32.4 °F /  0.2 °C 30.1in /  1020.6hPa ONO 11.2mph /  18km/h 22.3mph /  35.9km/h 38% 0in /  0.0mm
11:39 58.1 °F /  14.5 °C 32.7 °F /  0.4 °C 30.1in /  1020.6hPa ONO 11mph /  17.7km/h 19.6mph /  31.5km/h 38% 0in /  0.0mm
11:44 58.5 °F /  14.7 °C 32.9 °F /  0.5 °C 30.1in /  1020.7hPa ONO 10.2mph /  16.4km/h 27.9mph /  44.9km/h 38.1% 0in /  0.0mm
11:49 58.5 °F /  14.7 °C 33.1 °F /  0.6 °C 30.1in /  1020.7hPa ONO 10.5mph /  16.9km/h 27.9mph /  44.9km/h 38% 0in /  0.0mm
11:54 58.6 °F /  14.8 °C 33.1 °F /  0.6 °C 30.1in /  1020.7hPa ONO 11.8mph /  19km/h 31.1mph /  50.1km/h 38% 0in /  0.0mm
11:59 58.6 °F /  14.8 °C 33.1 °F /  0.6 °C 30.1in /  1020.7hPa ONO 12.5mph /  20.1km/h 23.5mph /  37.8km/h 38% 0in /  0.0mm
12:04 58.8 °F /  14.9 °C 33.3 °F /  0.7 °C 30.1in /  1020.4hPa ONO 14.7mph /  23.7km/h 26.5mph /  42.6km/h 38% 0in /  0.0mm
12:09 59 °F /  15 °C 33.4 °F /  0.8 °C 30.1in /  1020.4hPa ONO 14.7mph /  23.6km/h 27.9mph /  44.9km/h 37.9% 0in /  0.0mm
12:14 59.2 °F /  15.1 °C 32.9 °F /  0.5 °C 30.1in /  1020.4hPa NO 14.5mph /  23.3km/h 27.9mph /  44.9km/h 37% 0in /  0.0mm
12:19 59.4 °F /  15.2 °C 33.3 °F /  0.7 °C 30.1in /  1020.4hPa ONO 14.6mph /  23.5km/h 27.6mph /  44.4km/h 37.3% 0in /  0.0mm
12:24 59.4 °F /  15.2 °C 33.1 °F /  0.6 °C 30.1in /  1020.4hPa ONO 15.2mph /  24.5km/h 31.1mph /  50.1km/h 37% 0in /  0.0mm
12:29 59.5 °F /  15.3 °C 33.1 °F /  0.6 °C 30.1in /  1020.4hPa ONO 15.3mph /  24.7km/h 28.8mph /  46.3km/h 37% 0in /  0.0mm
12:34 59.7 °F /  15.4 °C 33.3 °F /  0.7 °C 30.1in /  1020.2hPa ONO 15.9mph /  25.6km/h 25.6mph /  41.2km/h 36.8% 0in /  0.0mm
12:39 59.7 °F /  15.4 °C 32.7 °F /  0.4 °C 30.1in /  1020.2hPa ONO 15.7mph /  25.2km/h 28.8mph /  46.3km/h 36% 0in /  0.0mm
12:44 59.9 °F /  15.5 °C 33.1 °F /  0.6 °C 30.1in /  1020.2hPa ONO 14.7mph /  23.7km/h 26.5mph /  42.6km/h 36.3% 0in /  0.0mm
12:49 60.3 °F /  15.7 °C 33.3 °F /  0.7 °C 30.1in /  1019.9hPa ONO 14.3mph /  23km/h 22.3mph /  35.9km/h 36.3% 0in /  0.0mm
12:54 60.3 °F /  15.7 °C 33.3 °F /  0.7 °C 30.1in /  1019.9hPa ONO 12.5mph /  20.1km/h 25.3mph /  40.7km/h 36% 0in /  0.0mm
12:59 60.3 °F /  15.7 °C 33.3 °F /  0.7 °C 30.1in /  1019.9hPa ONO 12.9mph /  20.8km/h 20.7mph /  33.3km/h 36% 0in /  0.0mm
13:04 60.6 °F /  15.9 °C 33.1 °F /  0.6 °C 30.1in /  1019.6hPa Oeste 14.5mph /  23.3km/h 23mph /  37km/h 35.5% 0in /  0.0mm
13:09 60.6 °F /  15.9 °C 33.1 °F /  0.6 °C 30.1in /  1019.6hPa ONO 14.2mph /  22.9km/h 25.3mph /  40.7km/h 35.3% 0in /  0.0mm
13:14 61 °F /  16.1 °C 33.1 °F /  0.6 °C 30.1in /  1019.6hPa ONO 13mph /  20.9km/h 29.9mph /  48.1km/h 35% 0in /  0.0mm
13:19 60.6 °F /  15.9 °C 32.9 °F /  0.5 °C 30.1in /  1019.4hPa ONO 13.4mph /  21.6km/h 25.6mph /  41.2km/h 35% 0in /  0.0mm
13:24 60.8 °F /  16 °C 33.1 °F /  0.6 °C 30.1in /  1019.4hPa Oeste 15.2mph /  24.5km/h 25.3mph /  40.7km/h 35.2% 0in /  0.0mm
13:29 61.2 °F /  16.2 °C 33.3 °F /  0.7 °C 30.1in /  1019.4hPa ONO 15mph /  24.1km/h 22.3mph /  35.9km/h 35% 0in /  0.0mm
13:34 61.2 °F /  16.2 °C 33.3 °F /  0.7 °C 30.1in /  1019.1hPa ONO 14mph /  22.5km/h 24.2mph /  38.9km/h 35% 0in /  0.0mm
13:39 61 °F /  16.1 °C 33.1 °F /  0.6 °C 30.1in /  1019.1hPa ONO 14.2mph /  22.9km/h 28.8mph /  46.3km/h 35% 0in /  0.0mm
13:44 61.2 °F /  16.2 °C 33.6 °F /  0.9 °C 30.1in /  1019.1hPa Oeste 15.2mph /  24.5km/h 23mph /  37km/h 35.4% 0in /  0.0mm
13:49 61.2 °F /  16.2 °C 33.3 °F /  0.7 °C 30.1in /  1019.1hPa ONO 14.7mph /  23.6km/h 23.5mph /  37.8km/h 35% 0in /  0.0mm
13:54 61.2 °F /  16.2 °C 33.6 °F /  0.9 °C 30.1in /  1019.1hPa ONO 12.3mph /  19.8km/h 25.3mph /  40.7km/h 35.5% 0in /  0.0mm
13:59 61.3 °F /  16.3 °C 34 °F /  1.1 °C 30.1in /  1019.1hPa ONO 12.4mph /  19.9km/h 25.6mph /  41.2km/h 35.8% 0in /  0.0mm
14:04 61.3 °F /  16.3 °C 33.6 °F /  0.9 °C 30.1in /  1019.0hPa Oeste 12.5mph /  20.1km/h 25.3mph /  40.7km/h 35.3% 0in /  0.0mm
14:09 61.5 °F /  16.4 °C 34.2 °F /  1.2 °C 30.1in /  1019.0hPa ONO 12.4mph /  19.9km/h 20.7mph /  33.3km/h 36% 0in /  0.0mm
14:14 61.5 °F /  16.4 °C 33.8 °F /  1 °C 30.1in /  1019.0hPa ONO 11.8mph /  19km/h 25.3mph /  40.7km/h 35.3% 0in /  0.0mm
14:19 61.5 °F /  16.4 °C 34 °F /  1.1 °C 30.1in /  1019.0hPa ONO 11.9mph /  19.1km/h 22.3mph /  35.9km/h 35.5% 0in /  0.0mm
14:24 61.5 °F /  16.4 °C 34.3 °F /  1.3 °C 30.1in /  1019.0hPa Oeste 12.3mph /  19.8km/h 20.8mph /  33.5km/h 36% 0in /  0.0mm
14:29 61.5 °F /  16.4 °C 34.2 °F /  1.2 °C 30.1in /  1019.1hPa ONO 12.4mph /  20km/h 23mph /  37km/h 35.7% 0in /  0.0mm
14:34 61.7 °F /  16.5 °C 34.5 °F /  1.4 °C 30.1in /  1019.1hPa ONO 13mph /  20.9km/h 20.1mph /  32.3km/h 36% 0in /  0.0mm
14:39 61.9 °F /  16.6 °C 34.5 °F /  1.4 °C 30.1in /  1019.1hPa ONO 12.8mph /  20.6km/h 20.7mph /  33.3km/h 36% 0in /  0.0mm
14:44 62.1 °F /  16.7 °C 34.7 °F /  1.5 °C 30.1in /  1019.1hPa ONO 11.8mph /  19km/h 24.2mph /  38.9km/h 36% 0in /  0.0mm
14:49 62.1 °F /  16.7 °C 34.7 °F /  1.5 °C 30.1in /  1019.0hPa ONO 11.9mph /  19.2km/h 23.5mph /  37.8km/h 36% 0in /  0.0mm
14:54 62.1 °F /  16.7 °C 34.3 °F /  1.3 °C 30.1in /  1019.0hPa ONO 12.5mph /  20.1km/h 21.9mph /  35.2km/h 35.5% 0in /  0.0mm
14:59 62.1 °F /  16.7 °C 34.2 °F /  1.2 °C 30.1in /  1019.0hPa ONO 12.7mph /  20.4km/h 26.5mph /  42.6km/h 35% 0in /  0.0mm
15:04 62.2 °F /  16.8 °C 34.2 °F /  1.2 °C 30.1in /  1019.0hPa NO 13.5mph /  21.7km/h 22.5mph /  36.2km/h 35% 0in /  0.0mm
15:09 62.2 °F /  16.8 °C 34.2 °F /  1.2 °C 30.1in /  1019.0hPa ONO 13.2mph /  21.2km/h 23mph /  37km/h 35% 0in /  0.0mm
15:14 62.2 °F /  16.8 °C 34.3 °F /  1.3 °C 30.1in /  1019.0hPa ONO 11.8mph /  19km/h 21.9mph /  35.2km/h 35% 0in /  0.0mm
15:19 62.4 °F /  16.9 °C 34.3 °F /  1.3 °C 30.1in /  1018.9hPa ONO 11.7mph /  18.8km/h 20.7mph /  33.3km/h 35% 0in /  0.0mm
15:24 62.4 °F /  16.9 °C 34.3 °F /  1.3 °C 30.1in /  1018.9hPa ONO 11.2mph /  18km/h 17.5mph /  28.2km/h 35% 0in /  0.0mm
15:29 62.4 °F /  16.9 °C 34.5 °F /  1.4 °C 30.1in /  1019.0hPa ONO 10.8mph /  17.4km/h 12.7mph /  20.4km/h 35.1% 0in /  0.0mm
15:34 62.8 °F /  17.1 °C 34.7 °F /  1.5 °C 30.1in /  1019.0hPa ONO 9.2mph /  14.8km/h 16.3mph /  26.2km/h 35% 0in /  0.0mm
15:39 62.8 °F /  17.1 °C 34.5 °F /  1.4 °C 30.1in /  1019.0hPa ONO 9.2mph /  14.8km/h 18.5mph /  29.8km/h 35% 0in /  0.0mm
15:44 62.4 °F /  16.9 °C 34.3 °F /  1.3 °C 30.1in /  1019.1hPa NO 9.2mph /  14.8km/h 17.3mph /  27.8km/h 35% 0in /  0.0mm
15:49 62.4 °F /  16.9 °C 34.3 °F /  1.3 °C 30.1in /  1019.1hPa ONO 9mph /  14.5km/h 17.3mph /  27.8km/h 35% 0in /  0.0mm
15:54 62.6 °F /  17 °C 35.2 °F /  1.8 °C 30.1in /  1019.1hPa ONO 8.1mph /  13km/h 17.5mph /  28.2km/h 35.8% 0in /  0.0mm
15:59 62.6 °F /  17 °C 34.9 °F /  1.6 °C 30.1in /  1019.5hPa Oeste 8.6mph /  13.8km/h 21.3mph /  34.3km/h 35.6% 0in /  0.0mm
16:04 62.4 °F /  16.9 °C 35.1 °F /  1.7 °C 30.1in /  1019.5hPa ONO 10.2mph /  16.4km/h 20.7mph /  33.3km/h 36% 0in /  0.0mm
16:09 62.2 °F /  16.8 °C 35.4 °F /  1.9 °C 30.1in /  1019.5hPa ONO 10.5mph /  16.9km/h 19mph /  30.6km/h 36.5% 0in /  0.0mm
16:14 62.2 °F /  16.8 °C 35.6 °F /  2 °C 30.1in /  1019.5hPa ONO 11.8mph /  19km/h 18.4mph /  29.6km/h 37% 0in /  0.0mm
16:19 62.2 °F /  16.8 °C 35.6 °F /  2 °C 30.1in /  1019.5hPa ONO 11.7mph /  18.8km/h 16.1mph /  25.9km/h 37% 0in /  0.0mm
16:24 62.1 °F /  16.7 °C 35.4 °F /  1.9 °C 30.1in /  1019.5hPa ONO 11.2mph /  18km/h 20.7mph /  33.3km/h 37% 0in /  0.0mm
16:29 62.1 °F /  16.7 °C 35.6 °F /  2 °C 30.1in /  1019.9hPa ONO 11.1mph /  17.9km/h 16.3mph /  26.2km/h 37% 0in /  0.0mm
16:34 62.1 °F /  16.7 °C 35.6 °F /  2 °C 30.1in /  1019.9hPa ONO 10.7mph /  17.2km/h 17.5mph /  28.2km/h 37.2% 0in /  0.0mm
16:39 62.1 °F /  16.7 °C 36 °F /  2.2 °C 30.1in /  1019.9hPa NO 10.5mph /  16.9km/h 18.4mph /  29.6km/h 37.7% 0in /  0.0mm
16:44 62.1 °F /  16.7 °C 36.1 °F /  2.3 °C 30.1in /  1019.9hPa NO 9.7mph /  15.6km/h 16.1mph /  25.9km/h 38% 0in /  0.0mm
16:49 61.9 °F /  16.6 °C 36 °F /  2.2 °C 30.1in /  1019.8hPa ONO 9.6mph /  15.5km/h 17.3mph /  27.8km/h 38% 0in /  0.0mm
16:54 61.9 °F /  16.6 °C 36 °F /  2.2 °C 30.1in /  1019.8hPa ONO 9.2mph /  14.8km/h 15mph /  24.1km/h 38% 0in /  0.0mm
16:59 61.7 °F /  16.5 °C 36.5 °F /  2.5 °C 30.1in /  1019.8hPa ONO 8.9mph /  14.4km/h 16.3mph /  26.2km/h 38.9% 0in /  0.0mm
17:04 61.7 °F /  16.5 °C 36.5 °F /  2.5 °C 30.1in /  1019.8hPa ONO 8.1mph /  13km/h 13mph /  20.9km/h 39% 0in /  0.0mm
17:09 61.5 °F /  16.4 °C 36.3 °F /  2.4 °C 30.1in /  1019.8hPa ONO 8mph /  12.9km/h 15.2mph /  24.5km/h 39% 0in /  0.0mm
17:14 61.3 °F /  16.3 °C 36.3 °F /  2.4 °C 30.1in /  1020.1hPa ONO 7.6mph /  12.2km/h 18.4mph /  29.6km/h 39.1% 0in /  0.0mm
17:19 61.3 °F /  16.3 °C 36.7 °F /  2.6 °C 30.1in /  1020.1hPa ONO 7.9mph /  12.7km/h 13mph /  20.9km/h 40% 0in /  0.0mm
17:24 61.2 °F /  16.2 °C 36.7 °F /  2.6 °C 30.1in /  1020.1hPa ONO 9.2mph /  14.8km/h 15mph /  24.1km/h 40% 0in /  0.0mm
17:29 61.2 °F /  16.2 °C 36.5 °F /  2.5 °C 30.1in /  1020.3hPa ONO 9mph /  14.5km/h 15mph /  24.1km/h 40% 0in /  0.0mm
17:34 61 °F /  16.1 °C 36.9 °F /  2.7 °C 30.1in /  1020.3hPa ONO 8.1mph /  13km/h 12.7mph /  20.4km/h 40.5% 0in /  0.0mm
17:39 60.8 °F /  16 °C 36.9 °F /  2.7 °C 30.1in /  1020.3hPa ONO 7.7mph /  12.4km/h 10.4mph /  16.7km/h 41% 0in /  0.0mm
17:44 60.4 °F /  15.8 °C 36.7 °F /  2.6 °C 30.1in /  1020.5hPa ONO 5.9mph /  9.5km/h 10.4mph /  16.7km/h 41% 0in /  0.0mm
17:49 60.3 °F /  15.7 °C 36.9 °F /  2.7 °C 30.1in /  1020.5hPa ONO 6mph /  9.6km/h 10.4mph /  16.7km/h 41.6% 0in /  0.0mm
17:54 60.1 °F /  15.6 °C 37 °F /  2.8 °C 30.1in /  1020.5hPa Oeste 6.2mph /  10km/h 10.4mph /  16.7km/h 42% 0in /  0.0mm
17:59 59.9 °F /  15.5 °C 36.9 °F /  2.7 °C 30.1in /  1020.5hPa Oeste 5.8mph /  9.3km/h 6.2mph /  10km/h 42.2% 0in /  0.0mm
18:04 59.7 °F /  15.4 °C 37.2 °F /  2.9 °C 30.1in /  1020.5hPa Oeste 4.3mph /  6.9km/h 8.1mph /  13km/h 43% 0in /  0.0mm
18:09 59.5 °F /  15.3 °C 37 °F /  2.8 °C 30.1in /  1020.5hPa Oeste 4.3mph /  6.9km/h 10.4mph /  16.7km/h 43% 0in /  0.0mm
18:14 59.4 °F /  15.2 °C 37 °F /  2.8 °C 30.1in /  1020.8hPa Oeste 4.3mph /  6.9km/h 6.9mph /  11.1km/h 43.2% 0in /  0.0mm
18:19 59.4 °F /  15.2 °C 37.4 °F /  3 °C 30.1in /  1020.8hPa Oeste 4.3mph /  7km/h 11.4mph /  18.3km/h 44% 0in /  0.0mm
18:24 59.2 °F /  15.1 °C 37.2 °F /  2.9 °C 30.1in /  1020.8hPa Oeste 4.7mph /  7.6km/h 11.5mph /  18.5km/h 44% 0in /  0.0mm
18:29 59.2 °F /  15.1 °C 37.2 °F /  2.9 °C 30.2in /  1020.9hPa Oeste 4.9mph /  7.9km/h 14mph /  22.5km/h 44% 0in /  0.0mm
18:34 59.2 °F /  15.1 °C 37.6 °F /  3.1 °C 30.2in /  1020.9hPa Oeste 5.9mph /  9.5km/h 8.7mph /  14km/h 44.6% 0in /  0.0mm
18:39 58.8 °F /  14.9 °C 37.6 °F /  3.1 °C 30.2in /  1020.9hPa ONO 5.8mph /  9.4km/h 11.8mph /  19km/h 45% 0in /  0.0mm
18:44 58.8 °F /  14.9 °C 37.4 °F /  3 °C 30.2in /  1021.1hPa ONO 5.4mph /  8.7km/h 6.9mph /  11.1km/h 45% 0in /  0.0mm
18:49 58.6 °F /  14.8 °C 37.2 °F /  2.9 °C 30.2in /  1021.1hPa ONO 5.2mph /  8.3km/h 6.9mph /  11.1km/h 45% 0in /  0.0mm
18:54 58.6 °F /  14.8 °C 37.8 °F /  3.2 °C 30.2in /  1021.1hPa NO 4mph /  6.4km/h 5.8mph /  9.3km/h 45.9% 0in /  0.0mm
18:59 58.5 °F /  14.7 °C 37.8 °F /  3.2 °C 30.2in /  1021.3hPa ONO 3.7mph /  6km/h 5.2mph /  8.4km/h 46% 0in /  0.0mm
19:04 58.3 °F /  14.6 °C 37.6 °F /  3.1 °C 30.2in /  1021.3hPa ONO 2.9mph /  4.7km/h 4.6mph /  7.4km/h 46% 0in /  0.0mm
19:09 58.3 °F /  14.6 °C 37.8 °F /  3.2 °C 30.2in /  1021.3hPa Oeste 2.9mph /  4.7km/h 4.7mph /  7.6km/h 46.3% 0in /  0.0mm
19:14 57.9 °F /  14.4 °C 37.8 °F /  3.2 °C 30.2in /  1021.4hPa OSO 2.9mph /  4.7km/h 5.9mph /  9.5km/h 47% 0in /  0.0mm
19:19 57.7 °F /  14.3 °C 37.6 °F /  3.1 °C 30.2in /  1021.4hPa Oeste 2.9mph /  4.7km/h 4.7mph /  7.6km/h 47% 0in /  0.0mm
19:24 57.6 °F /  14.2 °C 37.9 °F /  3.3 °C 30.2in /  1021.4hPa OSO 3.1mph /  5km/h 5.8mph /  9.3km/h 47.7% 0in /  0.0mm
19:29 57.6 °F /  14.2 °C 37.9 °F /  3.3 °C 30.2in /  1021.5hPa SO 3mph /  4.9km/h 6.9mph /  11.1km/h 48% 0in /  0.0mm
19:34 57.6 °F /  14.2 °C 37.8 °F /  3.2 °C 30.2in /  1021.5hPa Sur 2.9mph /  4.7km/h 4.6mph /  7.4km/h 47.6% 0in /  0.0mm
19:39 57.7 °F /  14.3 °C 37.9 °F /  3.3 °C 30.2in /  1021.5hPa SE 2.8mph /  4.5km/h 4.7mph /  7.6km/h 47.4% 0in /  0.0mm
19:44 57.6 °F /  14.2 °C 38.1 °F /  3.4 °C 30.2in /  1021.6hPa ESE 2.4mph /  3.9km/h 4.6mph /  7.4km/h 48% 0in /  0.0mm
19:49 57.4 °F /  14.1 °C 38.1 °F /  3.4 °C 30.2in /  1021.6hPa SE 2.4mph /  3.9km/h 4.6mph /  7.4km/h 48.7% 0in /  0.0mm
19:54 57 °F /  13.9 °C 37.9 °F /  3.3 °C 30.2in /  1021.6hPa SSO 2.4mph /  3.9km/h 5.9mph /  9.5km/h 49% 0in /  0.0mm
19:59 57 °F /  13.9 °C 38.1 °F /  3.4 °C 30.2in /  1021.8hPa SSO 2.7mph /  4.3km/h 8.1mph /  13km/h 49% 0in /  0.0mm
20:04 57.2 °F /  14 °C 37.9 °F /  3.3 °C 30.2in /  1021.8hPa SSO 3.6mph /  5.8km/h 8.1mph /  13km/h 48.3% 0in /  0.0mm
20:09 57.2 °F /  14 °C 37.6 °F /  3.1 °C 30.2in /  1021.8hPa SSO 3.9mph /  6.3km/h 8.5mph /  13.7km/h 48% 0in /  0.0mm
20:14 57 °F /  13.9 °C 37.6 °F /  3.1 °C 30.2in /  1021.8hPa SO 5.2mph /  8.4km/h 11.8mph /  19km/h 48% 0in /  0.0mm
20:19 57.4 °F /  14.1 °C 37.8 °F /  3.2 °C 30.2in /  1021.8hPa SO 5.3mph /  8.6km/h 11.5mph /  18.5km/h 47.8% 0in /  0.0mm
20:24 57.6 °F /  14.2 °C 37.6 °F /  3.1 °C 30.2in /  1021.8hPa SO 5.9mph /  9.5km/h 8.1mph /  13km/h 47% 0in /  0.0mm
20:29 57.4 °F /  14.1 °C 37.8 °F /  3.2 °C 30.2in /  1021.9hPa SSO 5.6mph /  9km/h 6.9mph /  11.1km/h 47.7% 0in /  0.0mm
20:34 57.2 °F /  14 °C 37.8 °F /  3.2 °C 30.2in /  1021.9hPa Sur 4.3mph /  6.9km/h 7.4mph /  11.9km/h 48% 0in /  0.0mm
20:39 56.8 °F /  13.8 °C 37.8 °F /  3.2 °C 30.2in /  1021.9hPa SSE 4.5mph /  7.2km/h 9.2mph /  14.8km/h 48.8% 0in /  0.0mm
20:44 56.1 °F /  13.4 °C 37.8 °F /  3.2 °C 30.2in /  1022.1hPa SSE 5.2mph /  8.4km/h 9.2mph /  14.8km/h 49.8% 0in /  0.0mm
20:49 55.6 °F /  13.1 °C 37.8 °F /  3.2 °C 30.2in /  1022.1hPa SSE 5.3mph /  8.6km/h 10.4mph /  16.7km/h 50.9% 0in /  0.0mm
20:54 55.2 °F /  12.9 °C 37.8 °F /  3.2 °C 30.2in /  1022.1hPa Sur 5.9mph /  9.5km/h 9.2mph /  14.8km/h 51.9% 0in /  0.0mm
20:59 55 °F /  12.8 °C 37.6 °F /  3.1 °C 30.2in /  1022.2hPa Sur 5.8mph /  9.3km/h 9.2mph /  14.8km/h 52% 0in /  0.0mm
21:04 54.9 °F /  12.7 °C 37.6 °F /  3.1 °C 30.2in /  1022.2hPa Sur 5.4mph /  8.7km/h 8.1mph /  13km/h 52% 0in /  0.0mm
21:09 54.9 °F /  12.7 °C 37.6 °F /  3.1 °C 30.2in /  1022.2hPa SO 5.2mph /  8.4km/h 5.9mph /  9.5km/h 52% 0in /  0.0mm
21:14 54.9 °F /  12.7 °C 37.6 °F /  3.1 °C 30.2in /  1022.4hPa SO 4.3mph /  6.9km/h 6.2mph /  10km/h 52% 0in /  0.0mm
21:19 54.9 °F /  12.7 °C 37.6 °F /  3.1 °C 30.2in /  1022.4hPa SO 4.3mph /  6.9km/h 7.4mph /  11.9km/h 52% 0in /  0.0mm
21:24 54.9 °F /  12.7 °C 37.6 °F /  3.1 °C 30.2in /  1022.4hPa OSO 4.3mph /  6.9km/h 6.2mph /  10km/h 52% 0in /  0.0mm
21:29 54.9 °F /  12.7 °C 37.6 °F /  3.1 °C 30.2in /  1022.4hPa OSO 4.3mph /  6.9km/h 6.9mph /  11.1km/h 52% 0in /  0.0mm
21:34 54.9 °F /  12.7 °C 37.6 °F /  3.1 °C 30.2in /  1022.3hPa SO 4.3mph /  6.9km/h 5.2mph /  8.4km/h 52% 0in /  0.0mm
21:39 54.9 °F /  12.7 °C 37.6 °F /  3.1 °C 30.2in /  1022.3hPa SSE 4mph /  6.5km/h 4.7mph /  7.6km/h 52% 0in /  0.0mm
21:44 54.9 °F /  12.7 °C 37.8 °F /  3.2 °C 30.2in /  1022.6hPa SE 2.9mph /  4.7km/h 5.2mph /  8.4km/h 52.3% 0in /  0.0mm
21:49 54.3 °F /  12.4 °C 37.8 °F /  3.2 °C 30.2in /  1022.6hPa SSE 3mph /  4.9km/h 8.5mph /  13.7km/h 53.2% 0in /  0.0mm
21:54 54 °F /  12.2 °C 37.6 °F /  3.1 °C 30.2in /  1022.6hPa Sur 3.6mph /  5.8km/h 8.1mph /  13km/h 54% 0in /  0.0mm
21:59 53.6 °F /  12 °C 37.4 °F /  3 °C 30.2in /  1022.6hPa SSO 4mph /  6.5km/h 7.4mph /  11.9km/h 54% 0in /  0.0mm
22:04 53.8 °F /  12.1 °C 37.6 °F /  3.1 °C 30.2in /  1022.4hPa Sur 5.4mph /  8.7km/h 8.5mph /  13.7km/h 54% 0in /  0.0mm
22:09 54.1 °F /  12.3 °C 37.6 °F /  3.1 °C 30.2in /  1022.4hPa Sur 5.4mph /  8.7km/h 8.1mph /  13km/h 53.6% 0in /  0.0mm
22:14 54.3 °F /  12.4 °C 37.4 °F /  3 °C 30.2in /  1022.5hPa SSO 5.4mph /  8.7km/h 10.4mph /  16.7km/h 52.9% 0in /  0.0mm
22:19 54.7 °F /  12.6 °C 37.4 °F /  3 °C 30.2in /  1022.5hPa SSO 5.3mph /  8.6km/h 6.9mph /  11.1km/h 52% 0in /  0.0mm
22:24 54.9 °F /  12.7 °C 37.6 °F /  3.1 °C 30.2in /  1022.5hPa SSO 5.2mph /  8.4km/h 6.9mph /  11.1km/h 51.9% 0in /  0.0mm
22:29 55 °F /  12.8 °C 37.2 °F /  2.9 °C 30.2in /  1022.5hPa SSO 5.2mph /  8.4km/h 9.7mph /  15.6km/h 51% 0in /  0.0mm
22:34 55.2 °F /  12.9 °C 37.4 °F /  3 °C 30.2in /  1022.4hPa SSO 5.2mph /  8.4km/h 10mph /  16.1km/h 51% 0in /  0.0mm
22:39 55.2 °F /  12.9 °C 36.9 °F /  2.7 °C 30.2in /  1022.4hPa SSO 5.3mph /  8.6km/h 10.4mph /  16.7km/h 50% 0in /  0.0mm
22:44 55.2 °F /  12.9 °C 36.9 °F /  2.7 °C 30.2in /  1022.6hPa SSO 5.9mph /  9.5km/h 9.2mph /  14.8km/h 50% 0in /  0.0mm
22:49 55.2 °F /  12.9 °C 37 °F /  2.8 °C 30.2in /  1022.6hPa SO 5.7mph /  9.1km/h 6.4mph /  10.3km/h 50% 0in /  0.0mm
22:54 55.2 °F /  12.9 °C 36.9 °F /  2.7 °C 30.2in /  1022.6hPa SO 4.7mph /  7.6km/h 6.9mph /  11.1km/h 50% 0in /  0.0mm
22:59 55 °F /  12.8 °C 36.9 °F /  2.7 °C 30.2in /  1022.6hPa SO 4.5mph /  7.2km/h 6.9mph /  11.1km/h 50% 0in /  0.0mm
23:04 55 °F /  12.8 °C 36.9 °F /  2.7 °C 30.2in /  1022.6hPa Oeste 3.6mph /  5.8km/h 4.6mph /  7.4km/h 50.3% 0in /  0.0mm
23:09 54.7 °F /  12.6 °C 37 °F /  2.8 °C 30.2in /  1022.6hPa NNO 3.4mph /  5.4km/h 4.7mph /  7.6km/h 51.3% 0in /  0.0mm
23:14 53.8 °F /  12.1 °C 37 °F /  2.8 °C 30.2in /  1022.7hPa NNO 2.4mph /  3.9km/h 4.6mph /  7.4km/h 53.1% 0in /  0.0mm
23:19 53.1 °F /  11.7 °C 37 °F /  2.8 °C 30.2in /  1022.7hPa NO 2.5mph /  4km/h 5.2mph /  8.4km/h 54.3% 0in /  0.0mm
23:24 52.9 °F /  11.6 °C 37 °F /  2.8 °C 30.2in /  1022.7hPa NO 2.9mph /  4.7km/h 6.2mph /  10km/h 55% 0in /  0.0mm
23:29 52.7 °F /  11.5 °C 37 °F /  2.8 °C 30.2in /  1022.8hPa Oeste 3.1mph /  5km/h 6.2mph /  10km/h 55.3% 0in /  0.0mm
23:34 52.5 °F /  11.4 °C 37.2 °F /  2.9 °C 30.2in /  1022.8hPa OSO 4mph /  6.4km/h 5.9mph /  9.5km/h 56% 0in /  0.0mm
23:39 52.3 °F /  11.3 °C 37.2 °F /  2.9 °C 30.2in /  1022.8hPa OSO 3.9mph /  6.3km/h 5.2mph /  8.4km/h 56% 0in /  0.0mm
23:44 52.5 °F /  11.4 °C 37.2 °F /  2.9 °C 30.2in /  1022.8hPa SO 3.6mph /  5.8km/h 6.2mph /  10km/h 56% 0in /  0.0mm
23:49 52.7 °F /  11.5 °C 37.4 °F /  3 °C 30.2in /  1022.8hPa SO 3.8mph /  6.1km/h 9.2mph /  14.8km/h 56% 0in /  0.0mm
23:54 52.7 °F /  11.5 °C 37.4 °F /  3 °C 30.2in /  1022.8hPa OSO 4.7mph /  7.6km/h 6.9mph /  11.1km/h 56% 0in /  0.0mm
23:59 52.5 °F /  11.4 °C 37.4 °F /  3 °C 30.2in /  1022.8hPa OSO 4.3mph /  7km/h 4.6mph /  7.4km/h 56% 0in /  0.0mm
Murcia-Puente Tocinos, Espa?a
Compliments of Weather Underground - 3.25 mb

La estación de MeteoMurcia.com, publica sus datos en los siguientes proyectos:

Weather Underground PWS IMURCIAP2 Meteoclimatic www.awekas.at

W3Counter
Web Analytics